메인 페이지
METAR-TAF:

METAR-TAF

공항 :

지브롤터, 지브롤터

지브롤터 공항

위도: 36-09N, 경도: 005-21W, 고도: 5m

현재 날씨관측

예보는 1 시간 3분 전, 04:50시(UTC)에 발표되었습니다.
2kt
온도 11°C
습도 94%
기압 1016 hPa
시정: 7000m

METAR: LXGB 200450Z AUTO 26002KT 7000 // SCT009/// 11/10 Q1016

시각: 06:53 (05:53 UTC)

예보

예보는 34분 전, 05:19시(UTC)에 발표되었습니다.
예보 대상 시간: 20일 06시부터 20일 15시까지 (UTC)
북북동4kt
시정 10km 이상
고도 1000ft 상공 구름 많음
확률 30% :
일시적
20일 06시부터 20일 09시까지 (UTC)
시정: 7000m
고도 1000ft 상공 구름 조금
연무
전환 중
20일 09시부터 20일 12시까지 (UTC)
고도 4000ft 상공 구름 조금
전환 중
20일 12시부터 20일 15시까지 (UTC)
남서5kt

TAF: LXGB 200519Z 2006/2015 03004KT 9999 BKN010 PROB30 TEMPO 2006/2009 7000 HZ FEW010 BECMG 2009/2012 FEW040 BECMG 2012/2015 22005KT

4,000개 이상의 공항 관측 자료 및 예보 (METAR 및 TAF 보고).

지도상에서 검색 가능한 기상관측소가 노란 점과 빨간 점으로 표시되어 있습니다.

기상관측소 명을 보려면 표시 위로 마우스를 이동하세요.

날씨 관측과 예보를 보려면 클릭하세요.

지도 변경 : 확대하려면 엑스 표시가 있는 녹색 버튼, 축소하려면 빼기 표시가 있는 녹색 버튼, 다음 페이지의 지도를 보려면 녹색 화살표를 클릭하세요.


METAR-TAF: